Time;durP1;ratioP1;P1;durP2;ratioP2;P2;SDS_P1;SDS_P2;PMS_P1;PMS_P2;Temp;Humidity;BMP_temperature;BMP_pressure;BME280_temperature;BME280_humidity;BME280_pressure;Samples;Min_cycle;Max_cycle;Signal;HPM_P1;HPM_P2
2020/12/08 00:00:23;;;;;;;12.28;7.05;;;;;;;-6.70;67.63;101596.75;1776816;80;21132;-71
2020/12/08 00:02:50;;;;;;;11.40;6.62;;;;;;;-6.73;67.65;101595.45;1776223;80;21480;-71
2020/12/08 00:05:19;;;;;;;17.77;7.50;;;;;;;-6.77;67.72;101589.39;1772642;80;21992;-71
2020/12/08 00:07:47;;;;;;;15.20;7.75;;;;;;;-6.78;67.69;101586.39;1793990;79;21071;-71
2020/12/08 00:10:19;;;;;;;10.08;5.45;;;;;;;-6.79;67.86;101591.52;1783705;80;21068;-72
2020/12/08 00:12:49;;;;;;;14.03;6.80;;;;;;;-6.77;67.94;101588.11;1808324;79;21070;-72
2020/12/08 00:15:17;;;;;;;10.13;6.28;;;;;;;-6.77;68.00;101587.25;1805600;79;21510;-70
2020/12/08 00:17:46;;;;;;;13.35;6.97;;;;;;;-6.79;67.99;101598.80;1813118;79;23019;-70
2020/12/08 00:20:17;;;;;;;15.78;6.65;;;;;;;-6.84;68.01;101583.78;1815712;79;21114;-70
2020/12/08 00:22:45;;;;;;;15.98;8.45;;;;;;;-6.89;68.18;101587.13;1774029;80;21107;-70
2020/12/08 00:25:14;;;;;;;14.33;8.25;;;;;;;-6.87;68.31;101588.00;1815821;79;21253;-70
2020/12/08 00:27:41;;;;;;;12.73;7.62;;;;;;;-6.87;68.31;101588.00;1813633;77;21161;-71
2020/12/08 00:30:11;;;;;;;11.18;6.85;;;;;;;-6.88;68.24;101584.56;1774377;80;24182;-71
2020/12/08 00:32:40;;;;;;;13.15;7.97;;;;;;;-6.88;68.23;101586.28;1774430;80;21079;-69
2020/12/08 00:35:10;;;;;;;15.63;8.90;;;;;;;-6.90;68.40;101577.70;1743858;82;21061;-70
2020/12/08 00:37:43;;;;;;;9.23;5.55;;;;;;;-6.90;68.40;101577.70;1760898;80;21060;-70
2020/12/08 00:40:11;;;;;;;12.98;7.10;;;;;;;-6.86;68.43;101578.16;1774772;80;21179;-70
2020/12/08 00:42:39;;;;;;;12.35;7.62;;;;;;;-6.86;68.37;101571.73;1815572;78;22054;-70
2020/12/08 00:45:09;;;;;;;10.00;5.80;;;;;;;-6.87;68.32;101569.59;1768552;78;21478;-70
2020/12/08 00:47:38;;;;;;;10.18;6.30;;;;;;;-6.89;68.40;101561.44;1802629;79;21087;-70
2020/12/08 00:50:06;;;;;;;12.60;6.72;;;;;;;-6.89;68.31;101547.31;1774542;80;21092;-70
2020/12/08 00:52:34;;;;;;;16.80;8.70;;;;;;;-6.93;68.39;101558.85;1774570;80;21103;-71
2020/12/08 00:55:04;;;;;;;12.00;6.20;;;;;;;-6.91;68.46;101560.14;1784141;79;22066;-70
2020/12/08 00:57:32;;;;;;;16.70;8.30;;;;;;;-6.91;68.46;101560.14;1802173;79;21129;-70
2020/12/08 01:00:00;;;;;;;16.35;9.13;;;;;;;-6.92;68.50;101554.15;1813719;79;21334;-70
2020/12/08 01:02:30;;;;;;;13.83;8.28;;;;;;;-6.95;68.65;101566.08;1757852;80;21080;-70
2020/12/08 01:04:59;;;;;;;14.85;7.20;;;;;;;-6.94;68.54;101556.27;1746220;81;21058;-70
2020/12/08 01:07:27;;;;;;;11.65;6.53;;;;;;;-6.95;68.59;101561.83;1768223;80;22777;-71
2020/12/08 01:09:55;;;;;;;12.00;6.75;;;;;;;-6.95;68.59;101555.41;1772499;80;21163;-71
2020/12/08 01:12:23;;;;;;;18.23;7.92;;;;;;;-6.94;68.70;101557.12;1785386;79;21097;-70
2020/12/08 01:14:51;;;;;;;17.92;8.98;;;;;;;-6.95;68.77;101564.79;1748249;80;21173;-70
2020/12/08 01:17:20;;;;;;;13.58;7.45;;;;;;;-6.97;68.84;101564.78;1737072;82;21072;-70
2020/12/08 01:19:47;;;;;;;13.78;7.42;;;;;;;-6.96;68.96;101567.78;1739375;82;22063;-71
2020/12/08 01:22:17;;;;;;;13.53;7.80;;;;;;;-6.94;69.13;101567.83;1781257;79;21460;-70
2020/12/08 01:24:44;;;;;;;16.05;8.68;;;;;;;-6.95;69.34;101567.36;1749833;80;21522;-71
2020/12/08 01:27:14;;;;;;;12.28;7.15;;;;;;;-6.95;69.34;101567.36;1733777;82;21129;-70
2020/12/08 01:29:41;;;;;;;15.50;8.43;;;;;;;-6.92;69.41;101568.70;1744639;82;21149;-70
2020/12/08 01:32:09;;;;;;;14.65;8.18;;;;;;;-6.87;69.77;101566.16;1721372;83;22119;-70
2020/12/08 01:34:38;;;;;;;11.68;6.58;;;;;;;-6.85;70.00;101561.90;1721278;83;21098;-70
2020/12/08 01:37:07;;;;;;;15.90;8.83;;;;;;;-6.85;70.00;101561.90;1730410;82;22376;-70
2020/12/08 01:39:35;;;;;;;11.57;6.75;;;;;;;-6.84;70.34;101563.23;1747243;82;22356;-70
2020/12/08 01:42:03;;;;;;;11.38;6.87;;;;;;;-6.84;70.34;101563.23;1815795;79;21152;-71
2020/12/08 01:44:33;;;;;;;13.45;7.05;;;;;;;-6.82;70.25;101561.95;1774240;79;22101;-70
2020/12/08 01:47:03;;;;;;;17.05;9.40;;;;;;;-6.79;70.29;101550.41;1814925;79;21113;-70
2020/12/08 01:49:32;;;;;;;12.95;7.00;;;;;;;-6.79;70.25;101550.41;1812431;79;21173;-70
2020/12/08 01:52:00;;;;;;;19.70;9.03;;;;;;;-6.74;70.41;101544.92;1804719;79;21330;-70
2020/12/08 01:54:28;;;;;;;16.48;8.93;;;;;;;-6.74;70.48;101548.77;1744970;80;21079;-70
2020/12/08 01:56:56;;;;;;;15.30;8.90;;;;;;;-6.76;70.50;101547.87;1815630;79;21823;-70
2020/12/08 01:59:23;;;;;;;13.08;7.05;;;;;;;-6.74;70.69;101553.91;1721222;80;21151;-70
2020/12/08 02:01:55;;;;;;;10.75;6.60;;;;;;;-6.71;70.69;101552.64;1755920;80;21122;-69
2020/12/08 02:04:23;;;;;;;16.10;9.70;;;;;;;-6.75;70.91;101538.92;1774412;80;22406;-70
2020/12/08 02:06:51;;;;;;;19.85;8.73;;;;;;;-6.75;70.91;101538.92;1815503;79;21137;-70
2020/12/08 02:09:19;;;;;;;14.20;8.18;;;;;;;-6.78;71.04;101549.14;1774387;80;22058;-70
2020/12/08 02:11:46;;;;;;;16.50;8.50;;;;;;;-6.78;71.04;101549.14;1812802;79;21079;-70
2020/12/08 02:14:14;;;;;;;11.55;6.83;;;;;;;-6.77;71.06;101542.30;1774451;80;21127;-70
2020/12/08 02:16:42;;;;;;;18.25;8.58;;;;;;;-6.77;71.08;101539.72;1813634;79;21597;-71
2020/12/08 02:19:10;;;;;;;15.65;8.45;;;;;;;-6.78;71.04;101536.72;1756533;80;21465;-70
2020/12/08 02:21:40;;;;;;;14.40;7.87;;;;;;;-6.81;71.00;101537.56;1766147;80;22640;-70
2020/12/08 02:24:09;;;;;;;12.60;7.47;;;;;;;-6.83;70.91;101534.13;1812897;79;21066;-70
2020/12/08 02:26:38;;;;;;;13.43;8.13;;;;;;;-6.83;71.03;101537.12;1774020;80;21163;-70
2020/12/08 02:29:07;;;;;;;14.18;7.97;;;;;;;-6.89;71.01;101549.45;1813152;79;21179;-71
2020/12/08 02:31:38;;;;;;;13.25;7.62;;;;;;;-6.91;71.09;101540.88;1752150;80;21158;-71
2020/12/08 02:34:07;;;;;;;13.50;7.28;;;;;;;-6.97;70.99;101548.51;1813217;79;21822;-71
2020/12/08 02:36:35;;;;;;;10.90;6.25;;;;;;;-7.00;71.02;101546.78;1747350;80;21160;-71
2020/12/08 02:39:04;;;;;;;16.82;7.62;;;;;;;-7.00;71.02;101546.78;1701303;82;21152;-72
2020/12/08 02:41:32;;;;;;;15.20;8.48;;;;;;;-7.01;71.33;101547.62;1716117;82;21613;-71
2020/12/08 02:44:00;;;;;;;17.57;10.05;;;;;;;-7.03;71.32;101542.91;1768363;79;21056;-71
2020/12/08 02:46:28;;;;;;;16.55;9.00;;;;;;;-7.02;71.41;101558.75;1815416;79;22050;-71
2020/12/08 02:48:57;;;;;;;16.10;9.45;;;;;;;-6.95;71.59;101551.56;1774027;80;21120;-71
2020/12/08 02:51:28;;;;;;;10.05;6.42;;;;;;;-6.95;71.59;101551.56;1748271;80;21083;-70
2020/12/08 02:53:58;;;;;;;13.00;8.38;;;;;;;-6.95;71.54;101550.27;1772505;80;21080;-71
2020/12/08 02:56:26;;;;;;;13.43;7.53;;;;;;;-6.95;71.54;101550.27;1815566;79;21541;-71
2020/12/08 02:58:55;;;;;;;12.82;7.25;;;;;;;-6.98;71.46;101547.65;1815762;79;22852;-71
2020/12/08 03:01:24;;;;;;;11.15;6.28;;;;;;;-7.05;71.46;101552.27;1753674;80;21174;-71
2020/12/08 03:03:53;;;;;;;16.82;8.78;;;;;;;-7.05;71.46;101552.27;1815508;79;21101;-71
2020/12/08 03:06:22;;;;;;;12.70;6.58;;;;;;;-7.06;71.49;101558.25;1772326;80;21107;-70
2020/12/08 03:08:52;;;;;;;16.17;8.38;;;;;;;-7.07;71.53;101542.41;1774425;80;21076;-71
2020/12/08 03:11:20;;;;;;;12.30;7.97;;;;;;;-7.12;71.55;101544.08;1815656;79;22809;-71
2020/12/08 03:13:49;;;;;;;12.30;7.05;;;;;;;-7.14;71.61;101542.31;1773583;80;21083;-71
2020/12/08 03:16:17;;;;;;;11.93;7.53;;;;;;;-7.15;71.62;101552.15;1813272;79;21071;-71
2020/12/08 03:18:47;;;;;;;14.73;8.35;;;;;;;-7.22;71.65;101543.11;1815556;79;21053;-71
2020/12/08 03:21:15;;;;;;;14.10;7.78;;;;;;;-7.20;71.76;101546.98;1783563;80;21079;-71
2020/12/08 03:23:42;;;;;;;13.40;8.85;;;;;;;-7.20;71.76;101546.98;1746501;80;22948;-72
2020/12/08 03:26:10;;;;;;;17.25;8.78;;;;;;;-7.18;71.96;101542.72;1720122;82;21076;-70
2020/12/08 03:28:38;;;;;;;12.98;7.97;;;;;;;-7.18;71.96;101542.72;1742239;82;21083;-70
2020/12/08 03:31:06;;;;;;;19.62;8.53;;;;;;;-7.16;71.74;101537.59;1740521;82;21088;-69
2020/12/08 03:33:34;;;;;;;12.18;6.92;;;;;;;-7.18;71.81;101545.70;1742305;82;21157;-69
2020/12/08 03:36:03;;;;;;;15.70;8.38;;;;;;;-7.19;71.83;101532.01;1728191;82;23028;-71
2020/12/08 03:38:31;;;;;;;17.37;9.15;;;;;;;-7.20;71.99;101520.02;1773226;80;21155;-70
2020/12/08 03:41:00;;;;;;;14.78;9.30;;;;;;;-7.18;72.25;101526.03;1815823;79;21053;-70
2020/12/08 03:43:29;;;;;;;15.55;9.20;;;;;;;-7.18;72.25;101526.03;1774083;79;21048;-70
2020/12/08 03:45:57;;;;;;;16.87;10.08;;;;;;;-7.19;72.22;101528.58;1816781;78;21025;-70
2020/12/08 03:48:26;;;;;;;18.37;10.13;;;;;;;-7.14;72.13;101530.77;1809074;78;24251;-70
2020/12/08 03:50:54;;;;;;;15.50;8.65;;;;;;;-7.12;72.16;101527.39;1787773;78;21158;-70
2020/12/08 03:53:24;;;;;;;13.78;7.67;;;;;;;-7.11;72.26;101533.39;1796124;78;21133;-70
2020/12/08 03:55:58;;;;;;;13.98;8.50;;;;;;;-7.12;72.26;101533.81;1777588;80;21059;-69
2020/12/08 03:58:26;;;;;;;15.00;8.18;;;;;;;-7.05;72.79;101530.45;1741108;81;21091;-70
2020/12/08 04:00:54;;;;;;;16.70;8.90;;;;;;;-7.05;72.79;101530.45;1745187;82;21879;-70
2020/12/08 04:03:23;;;;;;;16.23;7.70;;;;;;;-7.03;73.04;101527.92;1756065;81;21155;-69
2020/12/08 04:05:51;;;;;;;17.25;9.65;;;;;;;-6.97;73.52;101528.83;1745118;82;21058;-69
2020/12/08 04:08:19;;;;;;;17.48;9.00;;;;;;;-6.97;73.52;101528.83;1754008;81;22693;-71
2020/12/08 04:10:50;;;;;;;12.58;6.60;;;;;;;-6.93;73.66;101519.04;1745170;81;21079;-70
2020/12/08 04:13:18;;;;;;;13.83;7.53;;;;;;;-6.90;73.85;101530.19;1761090;81;22065;-70
2020/12/08 04:15:48;;;;;;;14.90;8.15;;;;;;;-6.89;73.90;101518.64;1761088;81;21116;-70
2020/12/08 04:18:16;;;;;;;17.55;9.55;;;;;;;-6.87;74.03;101532.35;1761256;81;21063;-70
2020/12/08 04:20:44;;;;;;;20.37;8.80;;;;;;;-6.87;74.14;101530.20;1760570;81;21152;-70
2020/12/08 04:23:14;;;;;;;15.13;8.73;;;;;;;-6.83;74.17;101531.98;1746943;81;21133;-70
2020/12/08 04:25:42;;;;;;;18.67;10.03;;;;;;;-6.78;74.25;101538.01;1731023;83;22886;-70
2020/12/08 04:28:10;;;;;;;17.25;9.50;;;;;;;-6.76;74.18;101532.45;1765739;80;21487;-70
2020/12/08 04:30:38;;;;;;;18.10;8.75;;;;;;;-6.79;74.02;101529.44;1753930;81;21091;-70
2020/12/08 04:33:07;;;;;;;24.27;14.10;;;;;;;-6.78;73.92;101536.30;1745156;82;21082;-70
2020/12/08 04:35:35;;;;;;;17.05;9.58;;;;;;;-6.82;73.82;101526.85;1775400;80;21123;-69
2020/12/08 04:38:03;;;;;;;15.60;8.33;;;;;;;-6.80;73.87;101528.14;1771499;80;22046;-69
2020/12/08 04:40:30;;;;;;;15.45;8.23;;;;;;;-6.81;74.03;101535.42;1738263;81;21075;-70
2020/12/08 04:42:59;;;;;;;15.38;8.75;;;;;;;-6.80;74.09;101534.56;1751708;80;21055;-71
2020/12/08 04:45:27;;;;;;;16.85;9.15;;;;;;;-6.81;73.98;101529.86;1736724;81;21092;-70
2020/12/08 04:47:55;;;;;;;21.07;9.65;;;;;;;-6.88;73.81;101524.63;1727425;82;21127;-71
2020/12/08 04:50:23;;;;;;;17.65;10.45;;;;;;;-6.95;73.74;101531.02;1711565;82;22090;-71
2020/12/08 04:52:51;;;;;;;21.70;10.72;;;;;;;-6.98;73.50;101533.52;1747809;82;21147;-70
2020/12/08 04:55:19;;;;;;;17.37;9.95;;;;;;;-6.99;73.63;101534.80;1749648;82;21102;-71
2020/12/08 04:57:46;;;;;;;16.85;9.18;;;;;;;-7.03;73.61;101530.06;1738728;82;21072;-70
2020/12/08 05:00:14;;;;;;;19.90;10.72;;;;;;;-7.03;73.60;101535.20;1729508;82;21464;-74
2020/12/08 05:02:47;;;;;;;19.35;9.98;;;;;;;-7.06;73.60;101530.01;1750172;82;21904;-82
2020/12/08 05:05:16;;;;;;;16.27;9.35;;;;;;;-7.07;73.77;101535.99;1750627;81;21127;-80
2020/12/08 05:07:45;;;;;;;19.30;10.80;;;;;;;-7.07;73.55;101529.57;1750425;81;21142;-79
2020/12/08 05:10:14;;;;;;;16.15;9.20;;;;;;;-7.05;73.52;101530.87;1737434;82;21171;-82
2020/12/08 05:12:41;;;;;;;17.85;10.35;;;;;;;-7.02;73.55;101536.92;1721077;82;21181;-76
2020/12/08 05:15:16;;;;;;;19.00;11.10;;;;;;;-7.03;73.57;101532.63;1720240;83;22071;-77
2020/12/08 05:17:44;;;;;;;21.05;11.90;;;;;;;-7.02;73.47;101529.64;1723234;82;21152;-78
2020/12/08 05:20:13;;;;;;;14.83;8.35;;;;;;;-7.04;73.48;101533.48;1747123;82;21181;-79
2020/12/08 05:22:57;;;;;;;13.60;8.28;;;;;;;-7.05;73.48;101530.45;1749051;81;21496;-81
2020/12/08 05:25:29;;;;;;;17.15;9.80;;;;;;;-7.07;73.51;101521.87;1744086;82;21380;-77
2020/12/08 05:28:00;;;;;;;18.57;11.63;;;;;;;-7.06;73.54;101528.72;1748647;81;22068;-72
2020/12/08 05:30:28;;;;;;;19.27;11.03;;;;;;;-7.06;73.60;101533.86;1748291;82;21195;-79
2020/12/08 05:32:56;;;;;;;17.75;7.80;;;;;;;-7.06;73.65;101521.02;1749937;82;21104;-77
2020/12/08 05:35:25;;;;;;;23.07;11.35;;;;;;;-7.01;73.80;101530.94;1750414;82;21553;-79
2020/12/08 05:37:54;;;;;;;17.65;9.18;;;;;;;-6.93;74.04;101534.87;1722685;82;21114;-83
2020/12/08 05:40:25;;;;;;;19.80;10.32;;;;;;;-6.88;74.04;101535.77;1720852;83;22061;-81
2020/12/08 05:42:55;;;;;;;21.23;10.50;;;;;;;-6.84;74.00;101537.54;1721194;82;21226;-79
2020/12/08 05:45:24;;;;;;;25.35;11.88;;;;;;;-6.83;74.02;101537.98;1705382;83;21522;-73
2020/12/08 05:47:55;;;;;;;24.40;11.85;;;;;;;-6.83;74.02;101537.98;1743480;81;21174;-81
2020/12/08 05:50:27;;;;;;;23.05;10.88;;;;;;;-6.82;74.00;101538.41;1771149;80;21422;-79
2020/12/08 05:53:02;;;;;;;17.25;8.78;;;;;;;-6.87;73.89;101542.63;1733692;81;21906;-81
2020/12/08 05:55:31;;;;;;;19.20;9.08;;;;;;;-6.96;73.74;101535.68;1756389;81;21210;-80
2020/12/08 05:58:06;;;;;;;19.60;9.45;;;;;;;-7.01;73.65;101536.50;1756982;80;21048;-81
2020/12/08 06:00:34;;;;;;;19.20;9.55;;;;;;;-7.07;73.61;101528.29;1757190;81;21158;-81
2020/12/08 06:03:17;;;;;;;23.55;10.50;;;;;;;-7.10;73.50;101531.25;1757247;81;21158;-78
2020/12/08 06:05:46;;;;;;;12.53;5.50;;;;;;;-7.10;73.50;101531.25;1757349;81;22069;-79
2020/12/08 06:08:20;;;;;;;22.35;10.03;;;;;;;-7.14;73.56;101531.66;1757172;81;21139;-80
2020/12/08 06:10:55;;;;;;;22.58;10.13;;;;;;;-7.17;73.55;101533.30;1757139;80;21036;-79
2020/12/08 06:13:27;;;;;;;22.32;10.48;;;;;;;-7.21;73.55;101543.55;1757250;81;21154;-79
2020/12/08 06:15:56;;;;;;;17.67;8.55;;;;;;;-7.22;73.57;101543.11;1756753;81;21152;-80
2020/12/08 06:18:36;;;;;;;18.92;9.38;;;;;;;-7.24;73.60;101543.91;1746294;82;22061;-81
2020/12/08 06:21:26;;;;;;;19.70;9.98;;;;;;;-7.24;73.60;101543.91;1757205;81;21162;-80
2020/12/08 06:23:59;;;;;;;18.15;9.75;;;;;;;-7.24;73.56;101547.38;1746315;81;21121;-80
2020/12/08 06:26:34;;;;;;;19.57;10.03;;;;;;;-7.21;73.80;101542.69;1757172;81;21503;-80
2020/12/08 06:29:09;;;;;;;19.50;9.83;;;;;;;-7.19;73.72;101540.14;1746336;82;21642;-80
2020/12/08 06:31:43;;;;;;;20.68;9.55;;;;;;;-7.18;73.73;101544.00;1757408;81;22077;-80
2020/12/08 06:34:25;;;;;;;17.50;9.23;;;;;;;-7.16;73.77;101546.16;1745888;82;21095;-80
2020/12/08 06:36:53;;;;;;;15.00;8.00;;;;;;;-7.16;74.00;101545.30;1757399;81;21182;-80
2020/12/08 06:39:21;;;;;;;19.07;8.33;;;;;;;-7.11;74.05;101530.39;1762382;81;21066;-81
2020/12/08 06:41:49;;;;;;;22.02;9.48;;;;;;;-7.11;74.05;101530.39;1762499;81;21067;-80
2020/12/08 06:44:21;;;;;;;21.20;10.58;;;;;;;-7.08;74.12;101528.27;1762297;81;21815;-81
2020/12/08 06:47:01;;;;;;;14.60;6.83;;;;;;;-7.05;74.14;101535.58;1732601;81;21102;-79
2020/12/08 06:49:38;;;;;;;24.10;10.80;;;;;;;-7.04;74.06;101545.45;1723621;83;21548;-80
2020/12/08 06:52:10;;;;;;;18.32;8.83;;;;;;;-7.07;74.02;101534.70;1751867;81;21054;-81
2020/12/08 06:54:37;;;;;;;17.95;9.18;;;;;;;-7.08;74.05;101539.41;1700045;84;21070;-80
2020/12/08 06:57:05;;;;;;;19.27;8.98;;;;;;;-7.05;74.07;101530.45;1701706;84;22887;-81
2020/12/08 06:59:39;;;;;;;20.52;10.25;;;;;;;-7.05;74.07;101530.45;1751412;82;21092;-81
2020/12/08 07:02:09;;;;;;;20.45;9.05;;;;;;;-7.05;74.19;101525.31;1759173;81;21515;-80
2020/12/08 07:04:36;;;;;;;16.52;8.83;;;;;;;-7.04;74.28;101532.63;1726270;82;21135;-82
2020/12/08 07:07:09;;;;;;;16.75;7.95;;;;;;;-7.02;74.32;101532.20;1751827;82;21076;-80
2020/12/08 07:09:37;;;;;;;23.40;10.55;;;;;;;-6.99;74.46;101542.50;1726389;82;22079;-80
2020/12/08 07:12:06;;;;;;;18.82;8.43;;;;;;;-6.94;74.55;101537.87;1726748;82;21119;-81
2020/12/08 07:14:36;;;;;;;18.77;9.30;;;;;;;-6.94;74.55;101537.87;1751573;82;21199;-82
2020/12/08 07:17:04;;;;;;;24.52;11.57;;;;;;;-6.94;74.69;101540.44;1751537;82;21178;-80
2020/12/08 07:19:31;;;;;;;21.93;10.10;;;;;;;-6.89;74.75;101542.17;1751776;82;21052;-81
2020/12/08 07:22:00;;;;;;;21.23;9.70;;;;;;;-6.85;74.79;101545.20;1751649;81;22057;-81
2020/12/08 07:24:42;;;;;;;20.12;9.33;;;;;;;-6.81;74.92;101548.26;1749410;81;21063;-82
2020/12/08 07:27:11;;;;;;;23.27;11.45;;;;;;;-6.81;74.92;101548.26;1720890;83;21088;-80
2020/12/08 07:29:42;;;;;;;21.95;11.15;;;;;;;-6.80;74.92;101541.84;1735243;82;21064;-79
2020/12/08 07:32:09;;;;;;;24.75;11.05;;;;;;;-6.70;75.06;101547.94;1751682;82;21527;-81
2020/12/08 07:34:47;;;;;;;23.98;11.38;;;;;;;-6.70;75.06;101547.94;1756749;80;22058;-79
2020/12/08 07:37:18;;;;;;;21.97;9.90;;;;;;;-6.62;75.03;101558.30;1751610;82;21582;-81
2020/12/08 07:39:45;;;;;;;27.45;11.88;;;;;;;-6.59;74.98;101562.17;1751822;82;21531;-80
2020/12/08 07:42:13;;;;;;;21.73;9.98;;;;;;;-6.58;74.94;101553.19;1726628;82;21175;-81
2020/12/08 07:44:41;;;;;;;19.48;9.53;;;;;;;-6.56;74.91;101554.09;1751707;80;21499;-82
2020/12/08 07:47:12;;;;;;;26.55;11.97;;;;;;;-6.55;74.88;101557.09;1751622;80;22080;-82
2020/12/08 07:49:40;;;;;;;20.88;10.60;;;;;;;-6.54;74.92;101557.53;1725554;82;21114;-80
2020/12/08 07:52:07;;;;;;;16.82;8.23;;;;;;;-6.49;74.92;101558.84;1727314;81;21106;-79
2020/12/08 07:54:35;;;;;;;20.97;9.68;;;;;;;-6.45;74.93;101554.19;1707444;84;21135;-80
2020/12/08 07:57:05;;;;;;;25.92;11.53;;;;;;;-6.41;74.95;101553.35;1705832;84;21162;-81
2020/12/08 07:59:33;;;;;;;23.85;10.78;;;;;;;-6.37;75.03;101554.70;1700024;84;22499;-80
2020/12/08 08:02:01;;;;;;;20.85;9.23;;;;;;;-6.30;75.19;101553.02;1693652;84;21080;-81
2020/12/08 08:04:29;;;;;;;24.63;12.15;;;;;;;-6.26;75.00;101556.06;1706820;83;21518;-81
2020/12/08 08:06:57;;;;;;;31.07;12.23;;;;;;;-6.26;74.87;101547.49;1706739;82;21462;-81
2020/12/08 08:09:25;;;;;;;25.68;10.10;;;;;;;-6.28;74.72;101544.88;1707870;83;21117;-81
2020/12/08 08:11:53;;;;;;;25.77;11.88;;;;;;;-6.29;74.61;101552.16;1699901;84;22045;-81
2020/12/08 08:14:20;;;;;;;20.60;9.78;;;;;;;-6.32;74.35;101562.43;1683908;85;21095;-80
2020/12/08 08:16:50;;;;;;;29.02;11.85;;;;;;;-6.33;74.45;101556.00;1669138;84;21122;-80
2020/12/08 08:19:17;;;;;;;25.85;11.30;;;;;;;-6.30;74.48;101550.87;1708439;83;21071;-80
2020/12/08 08:21:45;;;;;;;26.68;11.97;;;;;;;-6.29;74.60;101545.73;1721310;83;21130;-82
2020/12/08 08:24:12;;;;;;;23.60;10.30;;;;;;;-6.25;74.62;101540.21;1721098;83;22180;-80
2020/12/08 08:26:41;;;;;;;22.82;10.20;;;;;;;-6.27;74.64;101547.92;1702100;83;21118;-80
2020/12/08 08:29:09;;;;;;;37.88;14.80;;;;;;;-6.28;74.69;101540.16;1698263;84;21041;-79
2020/12/08 08:31:37;;;;;;;23.52;10.78;;;;;;;-6.23;74.87;101542.36;1690974;82;21624;-80
2020/12/08 08:34:05;;;;;;;26.30;11.90;;;;;;;-6.20;74.76;101546.23;1719101;83;21130;-80
2020/12/08 08:36:32;;;;;;;20.23;8.70;;;;;;;-6.20;74.74;101534.66;1726772;82;22513;-80
2020/12/08 08:39:04;;;;;;;19.60;8.70;;;;;;;-6.16;74.78;101527.43;1725111;81;21129;-79
2020/12/08 08:41:31;;;;;;;22.65;10.82;;;;;;;-6.12;74.73;101531.73;1719810;83;21537;-81
2020/12/08 08:44:00;;;;;;;19.85;10.65;;;;;;;-6.10;74.62;101533.45;1701151;81;21081;-80
2020/12/08 08:46:28;;;;;;;18.12;9.45;;;;;;;-6.10;74.39;101523.59;1739326;81;21067;-80
2020/12/08 08:48:59;;;;;;;19.70;10.08;;;;;;;-6.09;74.35;101528.74;1754513;81;22469;-82
2020/12/08 08:51:26;;;;;;;21.80;10.38;;;;;;;-6.07;74.38;101518.50;1728671;82;21097;-81
2020/12/08 08:53:56;;;;;;;21.62;11.68;;;;;;;-6.04;74.23;101526.22;1738210;82;21130;-81
2020/12/08 08:56:23;;;;;;;18.23;9.10;;;;;;;-6.06;73.94;101524.93;1738168;82;21851;-81
2020/12/08 08:58:51;;;;;;;22.13;11.18;;;;;;;-6.04;73.99;101532.65;1726461;82;21075;-80
2020/12/08 09:01:19;;;;;;;19.98;10.50;;;;;;;-6.07;73.83;101526.21;1728321;82;22057;-80
2020/12/08 09:03:46;;;;;;;20.10;10.98;;;;;;;-6.05;73.73;101529.64;1734598;82;21590;-81
2020/12/08 09:06:16;;;;;;;19.92;10.72;;;;;;;-6.05;73.73;101529.64;1714531;82;21140;-81
2020/12/08 09:08:43;;;;;;;26.45;13.00;;;;;;;-6.00;73.71;101527.09;1732683;82;21331;-80
2020/12/08 09:11:16;;;;;;;19.98;10.15;;;;;;;-5.96;73.51;101520.70;1733724;82;21069;-81
2020/12/08 09:13:47;;;;;;;16.60;8.18;;;;;;;-5.92;73.47;101521.58;1753955;82;22119;-82
2020/12/08 09:16:16;;;;;;;19.80;10.78;;;;;;;-5.90;73.23;101506.55;1753631;82;21505;-83
2020/12/08 09:18:46;;;;;;;20.90;10.05;;;;;;;-5.92;72.99;101519.86;1732125;82;21143;-80
2020/12/08 09:21:14;;;;;;;19.73;10.55;;;;;;;-5.96;72.69;101524.56;1721220;82;21112;-81
2020/12/08 09:23:48;;;;;;;21.87;10.00;;;;;;;-6.02;72.52;101520.66;1721864;82;21053;-82
2020/12/08 09:26:18;;;;;;;18.55;8.30;;;;;;;-6.07;72.36;101514.64;1732847;82;21914;-81
2020/12/08 09:28:45;;;;;;;17.00;8.78;;;;;;;-6.08;72.11;101507.74;1734118;82;21121;-81
2020/12/08 09:31:17;;;;;;;21.60;11.43;;;;;;;-6.11;72.07;101509.02;1727570;82;21117;-80
2020/12/08 09:33:46;;;;;;;18.37;10.05;;;;;;;-6.14;72.01;101507.72;1720118;82;21461;-80
2020/12/08 09:36:13;;;;;;;18.27;10.38;;;;;;;-6.11;72.02;101511.16;1717485;82;21156;-81
2020/12/08 09:38:41;;;;;;;16.40;8.05;;;;;;;-6.11;71.96;101510.30;1733000;82;22854;-79
2020/12/08 09:41:08;;;;;;;20.08;10.23;;;;;;;-6.06;71.93;101509.92;1732806;82;21084;-81
2020/12/08 09:43:36;;;;;;;22.35;11.48;;;;;;;-6.06;71.93;101509.92;1732517;82;21131;-80
2020/12/08 09:46:07;;;;;;;24.30;11.43;;;;;;;-6.06;71.77;101501.78;1731614;82;21124;-80
2020/12/08 09:48:36;;;;;;;19.35;9.63;;;;;;;-6.09;71.65;101497.88;1740136;82;21159;-78
2020/12/08 09:51:04;;;;;;;21.00;10.37;;;;;;;-6.14;71.43;101491.01;1802636;78;21876;-77
2020/12/08 09:53:32;;;;;;;26.40;12.63;;;;;;;-6.17;71.62;101497.42;1807439;78;21505;-77
2020/12/08 09:56:08;;;;;;;18.75;8.90;;;;;;;-6.21;71.72;101496.52;1810783;79;21042;-81
2020/12/08 09:58:36;;;;;;;106.27;35.50;;;;;;;-6.21;71.72;101496.52;1815014;79;21113;-80
2020/12/08 10:01:04;;;;;;;29.32;13.40;;;;;;;-6.13;71.58;101492.73;1785781;79;21102;-76
2020/12/08 10:03:37;;;;;;;32.45;14.43;;;;;;;-6.08;71.47;101489.34;1814630;79;21892;-77
2020/12/08 10:06:07;;;;;;;34.60;14.83;;;;;;;-6.05;71.40;101492.36;1814571;79;21553;-76
2020/12/08 10:08:38;;;;;;;56.88;20.88;;;;;;;-6.01;71.41;101486.79;1814555;79;21097;-76
2020/12/08 10:11:13;;;;;;;21.65;9.70;;;;;;;-5.95;71.43;101494.13;1815952;79;21484;-77
2020/12/08 10:13:43;;;;;;;20.35;11.12;;;;;;;-5.89;71.44;101491.54;1814479;79;21556;-80
2020/12/08 10:16:10;;;;;;;26.00;12.68;;;;;;;-5.84;71.34;101489.87;1771897;80;21502;-81
2020/12/08 10:18:40;;;;;;;37.85;16.32;;;;;;;-5.82;71.35;101488.16;1771762;81;21074;-79
2020/12/08 10:21:09;;;;;;;22.93;12.03;;;;;;;-5.80;71.39;101498.02;1816161;79;21011;-81
2020/12/08 10:23:37;;;;;;;27.87;13.30;;;;;;;-5.76;71.35;101486.91;1816019;79;21149;-79
2020/12/08 10:26:06;;;;;;;25.57;12.20;;;;;;;-5.76;71.23;101490.77;1800330;78;21435;-78
2020/12/08 10:28:33;;;;;;;30.95;14.70;;;;;;;-5.76;71.23;101488.20;1746919;80;22045;-82
2020/12/08 10:31:00;;;;;;;91.80;28.17;;;;;;;-5.73;71.31;101487.77;1809918;77;21082;-87
2020/12/08 10:33:28;;;;;;;34.50;15.07;;;;;;;-5.68;71.38;101488.25;1801281;77;21057;-79
2020/12/08 10:35:56;;;;;;;53.60;19.00;;;;;;;-5.66;71.37;101483.96;1814254;77;21117;-77
2020/12/08 10:38:25;;;;;;;58.60;18.70;;;;;;;-5.68;71.31;101480.53;1814620;79;21130;-79
2020/12/08 10:40:55;;;;;;;32.13;12.37;;;;;;;-5.67;71.38;101481.38;1814435;79;22124;-73
2020/12/08 10:43:23;;;;;;;31.30;13.68;;;;;;;-5.64;71.40;101476.24;1813885;79;21632;-76
2020/12/08 10:45:52;;;;;;;48.00;17.82;;;;;;;-5.66;71.44;101479.23;1810861;79;21051;-73
2020/12/08 10:48:20;;;;;;;36.58;15.28;;;;;;;-5.64;71.59;101482.25;1804255;78;21127;-84
2020/12/08 10:50:48;;;;;;;19.95;10.63;;;;;;;-5.60;71.64;101474.10;1745665;81;21062;-83
2020/12/08 10:53:15;;;;;;;22.37;12.25;;;;;;;-5.56;71.54;101470.70;1719532;83;22145;-77
2020/12/08 10:55:43;;;;;;;24.92;11.60;;;;;;;-5.61;71.51;101471.09;1719532;82;21157;-86
2020/12/08 10:58:11;;;;;;;21.23;11.85;;;;;;;-5.58;71.58;101469.41;1726455;82;21088;-87
2020/12/08 11:00:38;;;;;;;19.27;10.75;;;;;;;-5.54;71.58;101468.98;1711625;81;21140;-87
2020/12/08 11:03:05;;;;;;;23.47;12.37;;;;;;;-5.54;71.65;101467.27;1714954;81;21131;-86
2020/12/08 11:08:16;;;;;;;24.23;13.38;;;;;;;-5.51;71.78;101471.14;1705246;84;21154;-86
2020/12/08 11:10:44;;;;;;;30.02;14.63;;;;;;;-5.46;71.82;101468.59;1728172;81;21116;-83
2020/12/08 11:13:14;;;;;;;26.37;14.25;;;;;;;-5.49;71.82;101468.16;1733090;81;21112;-86
2020/12/08 11:15:45;;;;;;;28.27;15.00;;;;;;;-5.49;71.82;101462.16;1738712;81;21139;-85
2020/12/08 11:18:12;;;;;;;20.90;12.90;;;;;;;-5.50;71.81;101466.84;1744381;80;22042;-72
2020/12/08 11:20:43;;;;;;;26.23;13.38;;;;;;;-5.50;71.86;101464.27;1747888;80;21140;-81
2020/12/08 11:23:11;;;;;;;22.05;11.68;;;;;;;-5.49;71.88;101462.16;1758358;81;21034;-78
2020/12/08 11:25:40;;;;;;;24.18;13.03;;;;;;;-5.48;71.85;101469.02;1732534;81;22439;-75